Capt. Shelby House — WDC6536 — position and weather

sailwx.info

Track history (hours):
 
Tides and Currents Weather Stations Pressure Air Temp Water Temp Dewpoint Dewpoint Depression Visibility Wind Speed Wind Dir Waves Ship Positions

Capt. Shelby House

Owner: American Commercial Lines LLC, Jeffersonville, IN. More information available from US FCC via Universal Licensing System and Coast Guard Vessel Documentation Center.

Last reported at 2018-Apr-19 19:10 UTC. Time now 2018-Apr-20 06:50 UTC.
Position N 32°05' W 091°05'.

Length 48 m; draft 3.1 m.

Type: Towing. MMSI: 367057630.

Date/timePositionNaut miles runAvg speedWind from/ knotsBaromVisibWave heightAir tempDewpointWater temp
2018-Apr-19 19:10N 32°05' W 091°05'210.2
2018-Apr-19 19:00N 32°07' W 091°06'3 6.2
2018-Apr-19 18:30N 32°07' W 091°03'4 8.1
2018-Apr-19 18:00N 32°11' W 090°60'5 9.9
2018-Apr-19 17:30N 32°15' W 090°58'510.6
2018-Apr-19 17:00N 32°19' W 090°54'3 5.2
2018-Apr-19 16:30N 32°21' W 090°57'0 0.3
2018-Apr-19 16:00N 32°21' W 090°57'0 0.0
2018-Apr-19 15:30N 32°21' W 090°57'0 0.0
2018-Apr-19 15:00N 32°21' W 090°57'0 0.0
2018-Apr-19 14:30N 32°21' W 090°57'0 0.0
2018-Apr-19 14:00N 32°21' W 090°57'0 0.0
2018-Apr-19 13:30N 32°21' W 090°57'0 0.0
2018-Apr-19 13:00N 32°21' W 090°57'0 0.0
2018-Apr-19 12:30N 32°21' W 090°57'0 0.0
2018-Apr-19 12:00N 32°21' W 090°57'0 0.0
2018-Apr-19 11:30N 32°21' W 090°57'0 0.0
2018-Apr-19 11:00N 32°21' W 090°57'0 0.0
2018-Apr-19 10:30N 32°21' W 090°57'0 0.0
2018-Apr-19 10:00N 32°21' W 090°57'0 0.0
2018-Apr-19 09:30N 32°21' W 090°57'0 0.0
2018-Apr-19 09:00N 32°21' W 090°57'0 0.0
2018-Apr-19 08:29N 32°21' W 090°57'0 0.0
2018-Apr-19 08:00N 32°21' W 090°57'0 0.7
2018-Apr-19 07:30N 32°21' W 090°57'3 6.5
2018-Apr-19 07:00N 32°23' W 090°60'4 8.2
2018-Apr-19 06:30N 32°26' W 091°03'5 9.7
2018-Apr-19 06:00N 32°30' W 091°07'7 8.9
2018-Apr-19 05:16N 32°36' W 091°09'  
2018-Apr-12 00:46N 32°44' W 091°04'8 4.1
2018-Apr-11 22:47N 32°37' W 091°09'1 5.1
2018-Apr-11 22:30N 32°36' W 091°08'2 4.8
2018-Apr-11 22:00N 32°33' W 091°07'3 5.2
2018-Apr-11 21:28N 32°31' W 091°07'3 4.8
2018-Apr-11 20:57N 32°28' W 091°06'2 5.2
2018-Apr-11 20:30N 32°27' W 091°04'3 5.9
2018-Apr-11 20:00N 32°26' W 091°00'2 4.6
2018-Apr-11 19:30N 32°23' W 091°00'2 4.4
2018-Apr-11 19:00N 32°21' W 090°59'3 5.4
2018-Apr-11 18:30N 32°21' W 090°56'1 3.0
2018-Apr-11 18:00N 32°20' W 090°54'0 0.1
2018-Apr-11 17:30N 32°20' W 090°54'0 0.1
2018-Apr-11 17:00N 32°20' W 090°54'1 2.1
2018-Apr-11 16:30N 32°19' W 090°54'3 5.4
2018-Apr-11 16:00N 32°17' W 090°56'2 4.9
2018-Apr-11 15:30N 32°15' W 090°58'3 5.4
2018-Apr-11 15:00N 32°13' W 090°59'2 4.3
2018-Apr-11 14:30N 32°11' W 090°60'2 4.6
2018-Apr-11 14:00N 32°08' W 091°00'2 4.2
2018-Apr-11 13:30N 32°07' W 091°02'2 4.1
2018-Apr-11 13:00N 32°08' W 091°05'2 3.8
2018-Apr-11 12:30N 32°06' W 091°06'3 4.8
2018-Apr-11 11:59N 32°04' W 091°05'2 4.6
2018-Apr-11 11:27N 32°02' W 091°04'4 5.1
2018-Apr-11 10:34N 31°59' W 091°09'1 4.6
2018-Apr-11 10:24N 31°59' W 091°10'12 4.7
2018-Apr-11 07:54N 31°51' W 091°20'  
Track history (hours):
 
Tides and Currents Weather Stations Pressure Air Temp Water Temp Dewpoint Dewpoint Depression Visibility Wind Speed Wind Dir Waves Ship Positions

Capt. Shelby House

Owner: American Commercial Lines LLC, Jeffersonville, IN. More information available from US FCC via Universal Licensing System and Coast Guard Vessel Documentation Center.

Last reported at 2018-Apr-19 19:10 UTC. Time now 2018-Apr-20 06:50 UTC.
Position N 32°05' W 091°05'.

Length 48 m; draft 3.1 m.

Type: Towing. MMSI: 367057630.

Date/timePositionNaut miles runAvg speedWind from/ knotsBaromVisibWave heightAir tempDewpointWater temp
2018-Apr-19 19:10N 32°05' W 091°05'210.2
2018-Apr-19 19:00N 32°07' W 091°06'3 6.2
2018-Apr-19 18:30N 32°07' W 091°03'4 8.1
2018-Apr-19 18:00N 32°11' W 090°60'5 9.9
2018-Apr-19 17:30N 32°15' W 090°58'510.6
2018-Apr-19 17:00N 32°19' W 090°54'3 5.2
2018-Apr-19 16:30N 32°21' W 090°57'0 0.3
2018-Apr-19 16:00N 32°21' W 090°57'0 0.0
2018-Apr-19 15:30N 32°21' W 090°57'0 0.0
2018-Apr-19 15:00N 32°21' W 090°57'0 0.0
2018-Apr-19 14:30N 32°21' W 090°57'0 0.0
2018-Apr-19 14:00N 32°21' W 090°57'0 0.0
2018-Apr-19 13:30N 32°21' W 090°57'0 0.0
2018-Apr-19 13:00N 32°21' W 090°57'0 0.0
2018-Apr-19 12:30N 32°21' W 090°57'0 0.0
2018-Apr-19 12:00N 32°21' W 090°57'0 0.0
2018-Apr-19 11:30N 32°21' W 090°57'0 0.0
2018-Apr-19 11:00N 32°21' W 090°57'0 0.0
2018-Apr-19 10:30N 32°21' W 090°57'0 0.0
2018-Apr-19 10:00N 32°21' W 090°57'0 0.0
2018-Apr-19 09:30N 32°21' W 090°57'0 0.0
2018-Apr-19 09:00N 32°21' W 090°57'0 0.0
2018-Apr-19 08:29N 32°21' W 090°57'0 0.0
2018-Apr-19 08:00N 32°21' W 090°57'0 0.7
2018-Apr-19 07:30N 32°21' W 090°57'3 6.5
2018-Apr-19 07:00N 32°23' W 090°60'4 8.2
2018-Apr-19 06:30N 32°26' W 091°03'5 9.7
2018-Apr-19 06:00N 32°30' W 091°07'7 8.9
2018-Apr-19 05:16N 32°36' W 091°09'  
2018-Apr-12 00:46N 32°44' W 091°04'8 4.1
2018-Apr-11 22:47N 32°37' W 091°09'1 5.1
2018-Apr-11 22:30N 32°36' W 091°08'2 4.8
2018-Apr-11 22:00N 32°33' W 091°07'3 5.2
2018-Apr-11 21:28N 32°31' W 091°07'3 4.8
2018-Apr-11 20:57N 32°28' W 091°06'2 5.2
2018-Apr-11 20:30N 32°27' W 091°04'3 5.9
2018-Apr-11 20:00N 32°26' W 091°00'2 4.6
2018-Apr-11 19:30N 32°23' W 091°00'2 4.4
2018-Apr-11 19:00N 32°21' W 090°59'3 5.4
2018-Apr-11 18:30N 32°21' W 090°56'1 3.0
2018-Apr-11 18:00N 32°20' W 090°54'0 0.1
2018-Apr-11 17:30N 32°20' W 090°54'0 0.1
2018-Apr-11 17:00N 32°20' W 090°54'1 2.1
2018-Apr-11 16:30N 32°19' W 090°54'3 5.4
2018-Apr-11 16:00N 32°17' W 090°56'2 4.9
2018-Apr-11 15:30N 32°15' W 090°58'3 5.4
2018-Apr-11 15:00N 32°13' W 090°59'2 4.3
2018-Apr-11 14:30N 32°11' W 090°60'2 4.6
2018-Apr-11 14:00N 32°08' W 091°00'2 4.2
2018-Apr-11 13:30N 32°07' W 091°02'2 4.1
2018-Apr-11 13:00N 32°08' W 091°05'2 3.8
2018-Apr-11 12:30N 32°06' W 091°06'3 4.8
2018-Apr-11 11:59N 32°04' W 091°05'2 4.6
2018-Apr-11 11:27N 32°02' W 091°04'4 5.1
2018-Apr-11 10:34N 31°59' W 091°09'1 4.6
2018-Apr-11 10:24N 31°59' W 091°10'12 4.7
2018-Apr-11 07:54N 31°51' W 091°20'  

Dump ship's entire track history